createdAt,value
2018-02-18T00:01:29.102Z,47.33
2018-02-18T00:03:56.663Z,48.23
2018-02-18T00:06:24.201Z,43.47
2018-02-18T00:08:52.490Z,45.00
2018-02-18T00:11:20.003Z,47.37
2018-02-18T00:13:47.536Z,44.67
2018-02-18T00:16:15.046Z,47.37
2018-02-18T00:18:43.334Z,45.70
2018-02-18T00:21:10.898Z,50.30
2018-02-18T00:23:38.418Z,47.80
2018-02-18T00:26:05.918Z,44.70
2018-02-18T00:28:33.438Z,49.90
2018-02-18T00:31:00.950Z,47.37
2018-02-18T00:33:28.470Z,50.33
2018-02-18T00:35:56.740Z,51.57
2018-02-18T00:38:25.026Z,53.40
2018-02-18T00:40:53.294Z,56.37
2018-02-18T00:43:21.580Z,58.23
2018-02-18T00:45:49.842Z,48.03
2018-02-18T00:48:18.128Z,52.30
2018-02-18T00:50:46.395Z,47.27
2018-02-18T00:53:14.684Z,47.53
2018-02-18T00:55:42.955Z,59.47
2018-02-18T00:58:11.242Z,48.13
2018-02-18T01:00:38.815Z,50.20
2018-02-18T01:03:06.338Z,45.30
2018-02-18T01:05:34.615Z,54.70
2018-02-18T01:08:02.926Z,58.37
2018-02-18T01:10:30.431Z,55.27
2018-02-18T01:12:57.951Z,54.20
2018-02-18T01:15:25.451Z,53.50
2018-02-18T01:17:52.975Z,55.07
2018-02-18T01:20:20.482Z,54.50
2018-02-18T01:22:48.778Z,49.73
2018-02-18T01:25:16.282Z,45.77
2018-02-18T01:27:43.805Z,47.83
2018-02-18T01:30:11.369Z,47.37
2018-02-18T01:32:38.906Z,51.20
2018-02-18T01:35:07.177Z,46.53
2018-02-18T01:37:35.467Z,52.30
2018-02-18T01:40:02.970Z,52.90
2018-02-18T01:42:30.490Z,57.23
2018-02-18T01:44:58.046Z,55.40
2018-02-18T01:47:25.561Z,55.90
2018-02-18T01:49:53.068Z,59.37
2018-02-18T01:52:20.585Z,52.47
2018-02-18T01:54:48.087Z,51.67
2018-02-18T01:57:15.624Z,54.17
2018-02-18T01:59:43.899Z,56.97
2018-02-18T02:02:11.436Z,53.00
2018-02-18T02:04:38.957Z,57.63
2018-02-18T02:07:06.474Z,53.63
2018-02-18T02:09:34.768Z,58.83
2018-02-18T02:12:02.279Z,55.13
2018-02-18T02:14:30.562Z,61.40
2018-02-18T02:16:58.068Z,57.70
2018-02-18T02:19:25.595Z,56.87
2018-02-18T02:21:53.863Z,56.13
2018-02-18T02:24:22.150Z,67.10
2018-02-18T02:26:50.415Z,55.73
2018-02-18T02:29:18.707Z,60.00
2018-02-18T02:31:46.975Z,62.33
2018-02-18T02:34:15.272Z,61.13
2018-02-18T02:36:42.780Z,58.80
2018-02-18T02:39:10.308Z,66.17
2018-02-18T02:41:37.815Z,61.70
2018-02-18T02:44:06.108Z,62.67
2018-02-18T02:46:34.382Z,58.60
2018-02-18T02:49:02.675Z,60.87
2018-02-18T02:51:30.183Z,60.27
2018-02-18T02:53:57.707Z,65.07
2018-02-18T02:56:25.215Z,61.70
2018-02-18T02:58:52.736Z,55.90
2018-02-18T03:01:20.239Z,64.53
2018-02-18T03:03:48.543Z,63.73
2018-02-18T03:06:16.047Z,55.80
2018-02-18T03:08:43.567Z,62.70
2018-02-18T03:11:11.071Z,70.13
2018-02-18T03:13:38.671Z,65.37
2018-02-18T03:16:06.183Z,61.23
2018-02-18T03:18:33.799Z,67.10
2018-02-18T03:21:01.355Z,61.33
2018-02-18T03:23:28.897Z,60.93
2018-02-18T03:25:57.166Z,67.87
2018-02-18T03:28:25.459Z,61.27
2018-02-18T03:30:52.968Z,66.20
2018-02-18T03:33:20.473Z,63.20
2018-02-18T03:35:47.991Z,67.67
2018-02-18T03:38:15.493Z,63.37
2018-02-18T03:40:43.014Z,65.77
2018-02-18T03:43:10.520Z,64.13
2018-02-18T03:45:38.042Z,64.47
2018-02-18T03:48:06.318Z,66.83
2018-02-18T03:50:34.607Z,64.77
2018-02-18T03:53:02.874Z,64.17
2018-02-18T03:55:31.171Z,72.80
2018-02-18T03:57:58.671Z,61.73
2018-02-18T04:00:26.190Z,69.47
2018-02-18T04:02:53.700Z,67.03
2018-02-18T04:05:21.228Z,63.67
2018-02-18T04:07:48.763Z,66.87
2018-02-18T04:10:16.290Z,60.63
2018-02-18T04:12:44.558Z,59.17
2018-02-18T04:15:12.095Z,65.73
2018-02-18T04:17:39.593Z,65.07
2018-02-18T04:20:07.873Z,68.40
2018-02-18T04:22:36.190Z,61.90
2018-02-18T04:25:03.724Z,61.43
2018-02-18T04:27:31.236Z,70.20
2018-02-18T04:29:58.751Z,73.47
2018-02-18T04:32:26.259Z,70.60
2018-02-18T04:34:53.781Z,64.07
2018-02-18T04:37:21.282Z,61.67
2018-02-18T04:39:49.194Z,73.70
2018-02-18T04:42:16.731Z,63.67
2018-02-18T04:44:45.014Z,57.27
2018-02-18T04:47:12.520Z,76.03
2018-02-18T04:49:40.034Z,72.47
2018-02-18T04:52:08.304Z,69.13
2018-02-18T04:54:35.825Z,68.03
2018-02-18T04:57:03.331Z,64.27
2018-02-18T04:59:30.859Z,69.87
2018-02-18T05:01:59.121Z,72.03
2018-02-18T05:04:26.722Z,69.17
2018-02-18T05:06:54.232Z,70.93
2018-02-18T05:09:21.738Z,69.23
2018-02-18T05:11:49.285Z,69.07
2018-02-18T05:14:17.545Z,74.47
2018-02-18T05:16:45.831Z,73.97
2018-02-18T05:19:14.103Z,69.37
2018-02-18T05:21:42.392Z,74.17
2018-02-18T05:24:09.903Z,66.63
2018-02-18T05:26:37.431Z,65.87
2018-02-18T05:29:04.969Z,73.17
2018-02-18T05:31:32.476Z,62.23
2018-02-18T05:33:59.998Z,68.00
2018-02-18T05:36:27.511Z,62.27
2018-02-18T05:38:55.031Z,86.07
2018-02-18T05:41:22.536Z,69.57
2018-02-18T05:43:50.822Z,63.00
2018-02-18T05:46:19.091Z,70.83
2018-02-18T05:48:47.377Z,75.47
2018-02-18T05:51:15.647Z,73.77
2018-02-18T05:53:43.947Z,79.27
2018-02-18T05:56:11.451Z,79.37
2018-02-18T05:58:38.968Z,82.00
2018-02-18T06:01:06.470Z,77.10
2018-02-18T06:03:33.998Z,94.13
2018-02-18T06:06:01.502Z,95.60
2018-02-18T06:08:29.793Z,93.90
2018-02-18T06:10:58.064Z,89.77
2018-02-18T06:13:26.351Z,82.67
2018-02-18T06:15:53.859Z,89.40
2018-02-18T06:18:21.374Z,86.67
2018-02-18T06:20:48.878Z,85.30
2018-02-18T06:23:16.403Z,87.07
2018-02-18T06:25:43.945Z,83.50
2018-02-18T06:28:11.470Z,68.40
2018-02-18T06:30:39.062Z,80.80
2018-02-18T06:33:06.625Z,75.50
2018-02-18T06:35:34.134Z,79.40
2018-02-18T06:38:01.658Z,82.90
2018-02-18T06:40:29.203Z,76.53
2018-02-18T06:42:56.731Z,76.03
2018-02-18T06:45:25.001Z,84.90
2018-02-18T06:47:53.306Z,85.83
2018-02-18T06:50:20.806Z,77.90
2018-02-18T06:52:48.333Z,81.70
2018-02-18T06:55:15.834Z,74.60
2018-02-18T06:57:43.334Z,72.27
2018-02-18T07:00:11.621Z,68.47
2018-02-18T07:02:39.177Z,63.83
2018-02-18T07:05:06.694Z,72.27
2018-02-18T07:07:34.201Z,67.13
2018-02-18T07:10:01.754Z,65.67
2018-02-18T07:12:29.250Z,69.87
2018-02-18T07:14:56.771Z,71.83
2018-02-18T07:17:24.274Z,65.17
2018-02-18T07:19:51.795Z,65.50
2018-02-18T07:22:19.301Z,75.40
2018-02-18T07:24:46.823Z,67.10
2018-02-18T07:27:14.368Z,68.13
2018-02-18T07:29:41.924Z,76.17
2018-02-18T07:32:09.423Z,76.10
2018-02-18T07:34:36.934Z,72.03
2018-02-18T07:37:04.495Z,74.07
2018-02-18T07:39:32.023Z,70.87
2018-02-18T07:41:59.527Z,66.23
2018-02-18T07:44:27.046Z,63.37
2018-02-18T07:46:55.317Z,76.80
2018-02-18T07:49:22.829Z,79.33
2018-02-18T07:51:50.330Z,70.17
2018-02-18T07:54:17.851Z,71.57
2018-02-18T07:56:45.363Z,66.80
2018-02-18T07:59:13.654Z,70.80
2018-02-18T08:01:41.159Z,67.80
2018-02-18T08:04:08.686Z,67.90
2018-02-18T08:06:36.237Z,64.90
2018-02-18T08:09:04.503Z,67.17
2018-02-18T08:11:32.014Z,68.17
2018-02-18T08:13:59.622Z,67.83
2018-02-18T08:16:27.118Z,56.50
2018-02-18T08:18:54.642Z,63.10
2018-02-18T08:21:22.150Z,63.67
2018-02-18T08:23:49.666Z,73.63
2018-02-18T08:26:17.170Z,63.30
2018-02-18T08:28:44.685Z,62.07
2018-02-18T08:31:12.192Z,65.80
2018-02-18T08:33:39.715Z,64.60
2018-02-18T08:36:07.219Z,64.70
2018-02-18T08:38:35.527Z,69.27
2018-02-18T08:41:03.026Z,61.97
2018-02-18T08:43:30.531Z,66.07
2018-02-18T08:45:58.094Z,72.60
2018-02-18T08:48:25.595Z,69.43
2018-02-18T08:50:53.208Z,59.23
2018-02-18T08:53:20.715Z,67.73
2018-02-18T08:55:48.240Z,61.70
2018-02-18T08:58:15.742Z,73.77
2018-02-18T09:00:43.263Z,66.93
2018-02-18T09:03:10.794Z,64.77
2018-02-18T09:05:39.071Z,56.13
2018-02-18T09:08:07.339Z,82.67
2018-02-18T09:10:35.618Z,63.87
2018-02-18T09:13:03.882Z,75.73
2018-02-18T09:15:32.174Z,63.13
2018-02-18T09:18:00.440Z,70.20
2018-02-18T09:20:28.728Z,79.60
2018-02-18T09:22:56.253Z,73.77
2018-02-18T09:25:23.766Z,77.60
2018-02-18T09:27:51.266Z,59.57
2018-02-18T09:30:20.312Z,65.20
2018-02-18T09:32:47.815Z,62.97
2018-02-18T09:35:15.332Z,75.45
2018-02-18T09:37:42.831Z,78.13
2018-02-18T09:40:10.351Z,68.80
2018-02-18T09:42:37.855Z,63.43
2018-02-18T09:45:05.375Z,67.47
2018-02-18T09:47:32.869Z,59.60
2018-02-18T09:50:00.390Z,67.40
2018-02-18T09:52:27.935Z,73.30
2018-02-18T09:54:55.495Z,63.47
2018-02-18T09:57:23.001Z,72.87
2018-02-18T09:59:50.514Z,69.10
2018-02-18T10:02:18.016Z,65.03
2018-02-18T10:04:45.536Z,67.63
2018-02-18T10:07:13.030Z,60.27
2018-02-18T10:09:40.543Z,51.50
2018-02-18T10:12:08.048Z,53.10
2018-02-18T10:14:35.562Z,58.17
2018-02-18T10:17:03.074Z,53.50
2018-02-18T10:19:30.598Z,46.37
2018-02-18T10:21:58.094Z,43.70
2018-02-18T10:24:26.383Z,44.23
2018-02-18T10:26:54.651Z,46.90
2018-02-18T10:29:22.977Z,47.13
2018-02-18T10:31:50.492Z,99.30
2018-02-18T10:34:18.811Z,48.77
2018-02-18T10:36:46.330Z,43.40
2018-02-18T10:39:14.593Z,40.17
2018-02-18T10:41:42.135Z,40.27
2018-02-18T10:44:09.710Z,43.80
2018-02-18T10:46:38.007Z,36.70
2018-02-18T10:49:05.572Z,41.30
2018-02-18T10:51:33.096Z,42.97
2018-02-18T10:54:00.613Z,44.70
2018-02-18T10:56:28.151Z,48.43
2018-02-18T10:58:55.660Z,46.80
2018-02-18T11:01:23.261Z,43.37
2018-02-18T11:03:50.831Z,40.03
2018-02-18T11:06:18.394Z,50.60
2018-02-18T11:08:45.899Z,45.57
2018-02-18T11:11:13.410Z,45.93
2018-02-18T11:13:40.906Z,52.87
2018-02-18T11:16:08.519Z,52.30
2018-02-18T11:18:36.022Z,49.87
2018-02-18T11:21:03.538Z,55.97
2018-02-18T11:23:31.042Z,53.67
2018-02-18T11:25:58.559Z,51.33
2018-02-18T11:28:26.067Z,61.60
2018-02-18T11:30:53.587Z,59.23
2018-02-18T11:33:21.082Z,54.57
2018-02-18T11:35:48.599Z,60.67
2018-02-18T11:38:16.099Z,56.30
2018-02-18T11:40:43.610Z,58.73
2018-02-18T11:43:11.106Z,50.10
2018-02-18T11:45:38.618Z,54.30
2018-02-18T11:48:06.118Z,48.67
2018-02-18T11:50:33.630Z,58.30
2018-02-18T11:53:01.135Z,60.37
2018-02-18T11:55:28.650Z,53.77
2018-02-18T11:57:56.150Z,56.40
2018-02-18T12:00:23.667Z,59.70
2018-02-18T12:02:51.223Z,58.07
2018-02-18T12:05:18.778Z,59.53
2018-02-18T12:07:46.274Z,60.40
2018-02-18T12:10:13.783Z,64.20
2018-02-18T12:12:42.052Z,59.80
2018-02-18T12:15:10.335Z,67.30
2018-02-18T12:17:38.606Z,56.63
2018-02-18T12:20:06.885Z,58.03
2018-02-18T12:22:35.151Z,55.47
2018-02-18T12:25:03.430Z,67.37
2018-02-18T12:27:31.690Z,60.67
2018-02-18T12:29:59.277Z,54.27
2018-02-18T12:32:27.546Z,58.43
2018-02-18T12:34:55.823Z,51.40
2018-02-18T12:37:24.102Z,51.97
2018-02-18T12:39:52.364Z,53.60
2018-02-18T12:42:20.653Z,55.77
2018-02-18T12:44:48.914Z,48.80
2018-02-18T12:47:17.207Z,63.57
2018-02-18T12:49:44.718Z,54.50
2018-02-18T12:52:12.232Z,50.33
2018-02-18T12:54:39.835Z,58.90
2018-02-18T12:57:07.355Z,51.50
2018-02-18T12:59:34.859Z,46.23
2018-02-18T13:02:02.372Z,46.33
2018-02-18T13:04:29.882Z,49.83
2018-02-18T13:06:57.394Z,44.77
2018-02-18T13:09:24.943Z,44.33
2018-02-18T13:11:52.502Z,44.50
2018-02-18T13:14:20.000Z,41.87
2018-02-18T13:16:47.523Z,35.93
2018-02-18T13:19:15.022Z,34.57
2018-02-18T13:21:42.545Z,31.67
2018-02-18T13:24:10.042Z,29.97
2018-02-18T13:26:37.560Z,31.07
2018-02-18T13:29:05.062Z,32.10
2018-02-18T13:31:32.578Z,29.10
2018-02-18T13:34:00.088Z,31.57
2018-02-18T13:36:27.598Z,28.83
2018-02-18T13:38:55.102Z,29.50
2018-02-18T13:41:22.614Z,29.40
2018-02-18T13:43:50.106Z,32.30
2018-02-18T13:46:17.623Z,33.07
2018-02-18T13:48:45.125Z,34.10
2018-02-18T13:51:12.647Z,28.63
2018-02-18T13:53:40.148Z,31.83
2018-02-18T13:56:07.644Z,30.10
2018-02-18T13:58:35.158Z,29.90
2018-02-18T14:01:02.669Z,36.67
2018-02-18T14:03:30.187Z,38.03
2018-02-18T14:05:58.460Z,33.47
2018-02-18T14:08:26.054Z,33.93
2018-02-18T14:10:53.549Z,32.93
2018-02-18T14:13:21.066Z,36.97
2018-02-18T14:15:48.572Z,36.33
2018-02-18T14:18:16.094Z,39.30
2018-02-18T14:20:43.647Z,38.13
2018-02-18T14:23:11.167Z,41.00
2018-02-18T14:25:38.666Z,36.77
2018-02-18T14:28:06.187Z,43.17
2018-02-18T14:30:33.692Z,43.90
2018-02-18T14:33:01.230Z,44.83
2018-02-18T14:35:28.743Z,39.03
2018-02-18T14:37:56.357Z,43.27
2018-02-18T14:40:23.915Z,42.87
2018-02-18T14:43:03.426Z,50.53
2018-02-18T14:45:43.621Z,55.73
2018-02-18T14:48:23.102Z,45.33
2018-02-18T14:51:02.598Z,47.40
2018-02-18T14:53:41.975Z,51.30
2018-02-18T14:56:21.359Z,40.60
2018-02-18T14:58:48.889Z,40.57
2018-02-18T15:01:17.163Z,43.50
2018-02-18T15:03:45.434Z,41.60
2018-02-18T15:06:12.955Z,45.23
2018-02-18T15:08:40.458Z,45.50
2018-02-18T15:11:08.746Z,41.77
2018-02-18T15:13:37.011Z,39.53
2018-02-18T15:16:05.286Z,43.80
2018-02-18T15:18:33.630Z,44.23
2018-02-18T15:21:01.147Z,50.67
2018-02-18T15:23:28.654Z,46.07
2018-02-18T15:25:56.939Z,45.90
2018-02-18T15:28:24.438Z,45.90
2018-02-18T15:30:51.953Z,46.73
2018-02-18T15:33:19.459Z,51.13
2018-02-18T15:35:46.998Z,51.00
2018-02-18T15:38:15.258Z,48.43
2018-02-18T15:40:42.778Z,46.17
2018-02-18T15:43:10.278Z,52.57
2018-02-18T15:45:38.563Z,53.77
2018-02-18T15:48:06.835Z,52.90
2018-02-18T15:50:35.110Z,62.63
2018-02-18T15:53:03.394Z,47.00
2018-02-18T15:55:31.662Z,50.57
2018-02-18T15:57:59.956Z,52.10
2018-02-18T16:00:27.455Z,55.70
2018-02-18T16:02:54.978Z,53.23
2018-02-18T16:05:22.487Z,59.40
2018-02-18T16:07:50.011Z,52.43
2018-02-18T16:10:17.523Z,49.67
2018-02-18T16:12:45.819Z,42.83
2018-02-18T16:15:13.327Z,50.60
2018-02-18T16:17:40.856Z,49.60
2018-02-18T16:20:08.363Z,48.43
2018-02-18T16:22:35.887Z,50.53
2018-02-18T16:25:03.394Z,47.40
2018-02-18T16:27:31.687Z,48.23
2018-02-18T16:29:59.190Z,53.70
2018-02-18T16:32:26.730Z,54.37
2018-02-18T16:34:54.235Z,53.07
2018-02-18T16:37:21.755Z,59.30
2018-02-18T16:39:50.022Z,48.63
2018-02-18T16:42:17.542Z,55.27
2018-02-18T16:44:45.815Z,47.30
2018-02-18T16:47:14.106Z,50.20
2018-02-18T16:49:41.605Z,56.80
2018-02-18T16:52:09.135Z,44.53
2018-02-18T16:54:36.638Z,53.27
2018-02-18T16:57:04.147Z,51.90
2018-02-18T16:59:31.661Z,40.73
2018-02-18T17:01:59.166Z,47.10
2018-02-18T17:04:26.686Z,39.67
2018-02-18T17:06:54.191Z,42.30
2018-02-18T17:09:21.727Z,41.63
2018-02-18T17:11:49.242Z,42.47
2018-02-18T17:14:16.763Z,43.17
2018-02-18T17:16:44.274Z,47.57
2018-02-18T17:19:11.794Z,51.57
2018-02-18T17:21:39.299Z,49.00
2018-02-18T17:24:07.581Z,49.93
2018-02-18T17:26:35.842Z,50.57
2018-02-18T17:29:03.366Z,46.53
2018-02-18T17:31:30.871Z,42.50
2018-02-18T17:33:59.163Z,48.97
2018-02-18T17:36:26.667Z,49.30
2018-02-18T17:38:54.229Z,50.90
2018-02-18T17:41:21.710Z,52.57
2018-02-18T17:43:49.227Z,44.70
2018-02-18T17:46:16.727Z,49.30
2018-02-18T17:48:44.246Z,49.87
2018-02-18T17:51:11.751Z,57.43
2018-02-18T17:53:40.033Z,58.47
2018-02-18T17:56:08.304Z,58.77
2018-02-18T17:58:36.571Z,61.97
2018-02-18T18:01:04.863Z,61.00
2018-02-18T18:03:33.126Z,63.10
2018-02-18T18:06:01.420Z,69.00
2018-02-18T18:08:29.711Z,66.20
2018-02-18T18:10:57.222Z,65.87
2018-02-18T18:13:24.722Z,63.13
2018-02-18T18:15:52.243Z,69.03
2018-02-18T18:18:19.746Z,67.70
2018-02-18T18:20:47.266Z,64.57
2018-02-18T18:23:14.766Z,75.83
2018-02-18T18:25:42.282Z,79.90
2018-02-18T18:28:09.791Z,70.10
2018-02-18T18:30:37.310Z,70.47
2018-02-18T18:33:05.600Z,73.73
2018-02-18T18:35:33.879Z,85.50
2018-02-18T18:38:01.387Z,87.90
2018-02-18T18:40:28.911Z,92.27
2018-02-18T18:42:56.420Z,82.43
2018-02-18T18:45:23.947Z,91.00
2018-02-18T18:47:51.451Z,81.47
2018-02-18T18:50:19.746Z,86.33
2018-02-18T18:52:47.254Z,89.80
2018-02-18T18:55:14.782Z,87.23
2018-02-18T18:57:42.278Z,82.30
2018-02-18T19:00:09.790Z,77.80
2018-02-18T19:02:37.306Z,84.33
2018-02-18T19:05:04.816Z,74.53
2018-02-18T19:07:32.334Z,70.33
2018-02-18T19:10:00.598Z,67.40
2018-02-18T19:12:28.115Z,62.70
2018-02-18T19:14:55.623Z,66.87
2018-02-18T19:17:23.916Z,66.40
2018-02-18T19:19:51.424Z,80.73
2018-02-18T19:22:18.938Z,67.60
2018-02-18T19:24:46.498Z,66.77
2018-02-18T19:27:14.018Z,69.13
2018-02-18T19:29:41.527Z,57.33
2018-02-18T19:32:09.047Z,62.47
2018-02-18T19:34:37.318Z,66.07
2018-02-18T19:37:05.603Z,54.57
2018-02-18T19:39:33.874Z,51.13
2018-02-18T19:42:02.158Z,58.23
2018-02-18T19:44:30.426Z,56.03
2018-02-18T19:46:58.710Z,58.27
2018-02-18T19:49:26.985Z,54.77
2018-02-18T19:51:55.271Z,50.47
2018-02-18T19:54:22.787Z,57.47
2018-02-18T19:56:50.307Z,59.50
2018-02-18T19:59:17.811Z,52.97
2018-02-18T20:01:45.340Z,50.37
2018-02-18T20:04:12.838Z,58.40
2018-02-18T20:06:40.359Z,54.03
2018-02-18T20:09:07.862Z,52.40
2018-02-18T20:11:36.147Z,56.87
2018-02-18T20:14:04.420Z,59.60
2018-02-18T20:16:32.702Z,60.50
2018-02-18T20:19:00.980Z,63.53
2018-02-18T20:21:28.506Z,66.00
2018-02-18T20:23:56.012Z,63.47
2018-02-18T20:26:23.558Z,51.43
2018-02-18T20:28:51.059Z,57.43
2018-02-18T20:31:18.579Z,70.80
2018-02-18T20:33:46.139Z,64.33
2018-02-18T20:36:13.657Z,66.77
2018-02-18T20:38:41.158Z,65.13
2018-02-18T20:41:08.686Z,64.43
2018-02-18T20:43:36.991Z,73.07
2018-02-18T20:46:04.500Z,78.93
2018-02-18T20:48:32.047Z,83.60
2018-02-18T20:50:59.679Z,74.57
2018-02-18T20:53:27.340Z,79.07
2018-02-18T20:55:54.880Z,75.07
2018-02-18T20:58:22.410Z,75.33
2018-02-18T21:00:49.967Z,72.23
2018-02-18T21:03:17.491Z,75.77
2018-02-18T21:05:45.055Z,69.07
2018-02-18T21:08:12.583Z,78.20
2018-02-18T21:10:40.119Z,66.23
2018-02-18T21:13:08.405Z,77.53
2018-02-18T21:15:36.805Z,80.13
2018-02-18T21:18:04.570Z,78.30
2018-02-18T21:20:32.090Z,79.87
2018-02-18T21:23:00.375Z,67.97
2018-02-18T21:25:28.822Z,73.33
2018-02-18T21:27:56.455Z,71.10
2018-02-18T21:30:23.963Z,83.57
2018-02-18T21:32:52.310Z,71.40
2018-02-18T21:35:19.811Z,72.50
2018-02-18T21:37:48.099Z,78.43
2018-02-18T21:40:15.682Z,82.37
2018-02-18T21:42:43.211Z,70.53
2018-02-18T21:45:11.478Z,84.90
2018-02-18T21:47:39.758Z,75.77
2018-02-18T21:50:08.026Z,76.73
2018-02-18T21:52:36.310Z,68.43
2018-02-18T21:55:04.582Z,79.80
2018-02-18T21:57:32.866Z,78.90
2018-02-18T22:00:01.143Z,87.00
2018-02-18T22:02:28.716Z,86.63
2018-02-18T22:04:56.222Z,75.40
2018-02-18T22:07:23.746Z,78.30
2018-02-18T22:09:51.254Z,74.93
2018-02-18T22:12:18.754Z,88.37
2018-02-18T22:14:46.304Z,75.97
2018-02-18T22:17:13.815Z,67.67
2018-02-18T22:19:42.107Z,79.63
2018-02-18T22:22:10.409Z,77.27
2018-02-18T22:24:37.945Z,70.60
2018-02-18T22:27:06.211Z,67.17
2018-02-18T22:32:07.658Z,71.17
2018-02-18T22:34:35.184Z,77.20
2018-02-18T22:37:02.698Z,73.70
2018-02-18T22:39:30.227Z,69.40
2018-02-18T22:41:57.725Z,76.13
2018-02-18T22:44:26.014Z,77.03
2018-02-18T22:46:53.578Z,72.20
2018-02-18T22:49:21.102Z,82.83
2018-02-18T22:51:48.698Z,79.70
2018-02-18T22:54:16.219Z,77.93
2018-02-18T22:56:44.556Z,79.47
2018-02-18T22:59:12.099Z,76.47
2018-02-18T23:01:39.604Z,81.40
2018-02-18T23:04:07.142Z,87.80
2018-02-18T23:06:34.642Z,84.83
2018-02-18T23:09:02.910Z,77.40
2018-02-18T23:11:30.434Z,83.80
2018-02-18T23:13:57.944Z,82.10
2018-02-18T23:16:26.235Z,80.87
2018-02-18T23:18:53.739Z,93.60
2018-02-18T23:21:21.263Z,87.20
2018-02-18T23:23:48.815Z,83.73
2018-02-18T23:26:16.337Z,80.27
2018-02-18T23:28:43.843Z,87.23
2018-02-18T23:31:11.386Z,81.23
2018-02-18T23:33:38.893Z,84.30
2018-02-18T23:36:06.406Z,91.03
2018-02-18T23:38:33.910Z,85.17
2018-02-18T23:41:01.427Z,87.20
2018-02-18T23:43:28.946Z,83.47
2018-02-18T23:45:56.462Z,95.13
2018-02-18T23:48:23.967Z,90.37
2018-02-18T23:50:52.256Z,86.00
2018-02-18T23:53:20.522Z,92.90
2018-02-18T23:55:48.806Z,87.37
2018-02-18T23:58:17.078Z,76.63
